sensor_id;sensor_type;location;lat;lon;timestamp;P1;durP1;ratioP1;P2;durP2;ratioP2
33553;SDS011;19885;42.208;24.952;2022-10-22T00:01:16;16.60;;;7.50;;
33553;SDS011;19885;42.208;24.952;2022-10-22T00:03:41;16.43;;;8.63;;
33553;SDS011;19885;42.208;24.952;2022-10-22T00:06:07;20.83;;;8.60;;
33553;SDS011;19885;42.208;24.952;2022-10-22T00:08:33;10.40;;;7.67;;
33553;SDS011;19885;42.208;24.952;2022-10-22T00:10:59;17.13;;;8.70;;
33553;SDS011;19885;42.208;24.952;2022-10-22T00:13:32;12.10;;;7.33;;
33553;SDS011;19885;42.208;24.952;2022-10-22T00:15:58;14.83;;;8.03;;
33553;SDS011;19885;42.208;24.952;2022-10-22T00:18:23;19.43;;;7.50;;
33553;SDS011;19885;42.208;24.952;2022-10-22T00:20:49;21.30;;;8.13;;
33553;SDS011;19885;42.208;24.952;2022-10-22T00:23:16;14.07;;;8.47;;
33553;SDS011;19885;42.208;24.952;2022-10-22T00:25:41;16.43;;;8.20;;
33553;SDS011;19885;42.208;24.952;2022-10-22T00:28:07;15.43;;;8.17;;
33553;SDS011;19885;42.208;24.952;2022-10-22T00:30:33;20.83;;;8.70;;
33553;SDS011;19885;42.208;24.952;2022-10-22T00:32:58;12.13;;;7.57;;
33553;SDS011;19885;42.208;24.952;2022-10-22T00:35:24;19.00;;;9.37;;
33553;SDS011;19885;42.208;24.952;2022-10-22T00:37:49;14.83;;;7.97;;
33553;SDS011;19885;42.208;24.952;2022-10-22T00:40:15;15.23;;;8.47;;
33553;SDS011;19885;42.208;24.952;2022-10-22T00:42:40;16.63;;;9.83;;
33553;SDS011;19885;42.208;24.952;2022-10-22T00:50:23;20.97;;;8.90;;
33553;SDS011;19885;42.208;24.952;2022-10-22T00:52:54;16.93;;;9.43;;
33553;SDS011;19885;42.208;24.952;2022-10-22T00:55:22;15.00;;;7.97;;
33553;SDS011;19885;42.208;24.952;2022-10-22T00:57:49;15.33;;;8.03;;
33553;SDS011;19885;42.208;24.952;2022-10-22T01:00:15;13.43;;;7.77;;
33553;SDS011;19885;42.208;24.952;2022-10-22T01:02:43;14.00;;;8.43;;
33553;SDS011;19885;42.208;24.952;2022-10-22T01:05:09;18.23;;;8.43;;
33553;SDS011;19885;42.208;24.952;2022-10-22T01:07:38;11.13;;;6.97;;
33553;SDS011;19885;42.208;24.952;2022-10-22T01:10:09;13.47;;;7.53;;
33553;SDS011;19885;42.208;24.952;2022-10-22T01:20:54;11.43;;;6.53;;
33553;SDS011;19885;42.208;24.952;2022-10-22T01:29:25;9.00;;;5.33;;
33553;SDS011;19885;42.208;24.952;2022-10-22T01:31:56;13.37;;;7.23;;
33553;SDS011;19885;42.208;24.952;2022-10-22T01:34:25;14.87;;;7.57;;
33553;SDS011;19885;42.208;24.952;2022-10-22T01:36:53;13.50;;;6.87;;
33553;SDS011;19885;42.208;24.952;2022-10-22T01:39:20;14.30;;;7.47;;
33553;SDS011;19885;42.208;24.952;2022-10-22T01:41:48;12.87;;;7.47;;
33553;SDS011;19885;42.208;24.952;2022-10-22T01:44:24;23.60;;;8.77;;
33553;SDS011;19885;42.208;24.952;2022-10-22T02:00:19;13.40;;;8.27;;
33553;SDS011;19885;42.208;24.952;2022-10-22T02:02:52;17.63;;;9.00;;
33553;SDS011;19885;42.208;24.952;2022-10-22T02:05:27;12.20;;;8.07;;
33553;SDS011;19885;42.208;24.952;2022-10-22T02:08:16;16.70;;;8.20;;
33553;SDS011;19885;42.208;24.952;2022-10-22T02:10:46;14.63;;;7.63;;
33553;SDS011;19885;42.208;24.952;2022-10-22T02:13:18;12.40;;;7.23;;
33553;SDS011;19885;42.208;24.952;2022-10-22T02:15:49;13.17;;;6.63;;
33553;SDS011;19885;42.208;24.952;2022-10-22T02:18:17;15.90;;;8.10;;
33553;SDS011;19885;42.208;24.952;2022-10-22T02:20:46;14.43;;;6.90;;
33553;SDS011;19885;42.208;24.952;2022-10-22T02:23:12;11.57;;;6.37;;
33553;SDS011;19885;42.208;24.952;2022-10-22T02:25:39;18.20;;;7.67;;
33553;SDS011;19885;42.208;24.952;2022-10-22T02:28:12;12.03;;;6.63;;
33553;SDS011;19885;42.208;24.952;2022-10-22T02:30:47;13.83;;;6.70;;
33553;SDS011;19885;42.208;24.952;2022-10-22T02:33:23;10.13;;;6.27;;
33553;SDS011;19885;42.208;24.952;2022-10-22T02:36:04;16.73;;;7.67;;
33553;SDS011;19885;42.208;24.952;2022-10-22T02:38:32;12.87;;;6.97;;
33553;SDS011;19885;42.208;24.952;2022-10-22T02:40:59;11.20;;;7.07;;
33553;SDS011;19885;42.208;24.952;2022-10-22T02:43:27;15.37;;;7.37;;
33553;SDS011;19885;42.208;24.952;2022-10-22T02:45:53;13.90;;;6.37;;
33553;SDS011;19885;42.208;24.952;2022-10-22T02:48:18;13.77;;;7.87;;
33553;SDS011;19885;42.208;24.952;2022-10-22T02:50:44;19.83;;;7.90;;
33553;SDS011;19885;42.208;24.952;2022-10-22T02:53:09;11.20;;;7.13;;
33553;SDS011;19885;42.208;24.952;2022-10-22T02:55:35;15.33;;;7.03;;
33553;SDS011;19885;42.208;24.952;2022-10-22T02:58:01;10.90;;;6.60;;
33553;SDS011;19885;42.208;24.952;2022-10-22T03:00:27;12.73;;;7.50;;
33553;SDS011;19885;42.208;24.952;2022-10-22T03:02:52;15.17;;;7.70;;
33553;SDS011;19885;42.208;24.952;2022-10-22T03:05:18;14.53;;;7.33;;
33553;SDS011;19885;42.208;24.952;2022-10-22T03:07:43;13.10;;;7.33;;
33553;SDS011;19885;42.208;24.952;2022-10-22T03:10:09;13.13;;;7.87;;
33553;SDS011;19885;42.208;24.952;2022-10-22T03:12:34;13.27;;;7.90;;
33553;SDS011;19885;42.208;24.952;2022-10-22T03:15:00;13.27;;;7.17;;
33553;SDS011;19885;42.208;24.952;2022-10-22T03:17:28;13.93;;;7.10;;
33553;SDS011;19885;42.208;24.952;2022-10-22T03:19:54;13.57;;;7.27;;
33553;SDS011;19885;42.208;24.952;2022-10-22T03:22:21;14.80;;;7.73;;
33553;SDS011;19885;42.208;24.952;2022-10-22T03:24:52;9.73;;;6.93;;
33553;SDS011;19885;42.208;24.952;2022-10-22T03:27:21;14.90;;;8.27;;
33553;SDS011;19885;42.208;24.952;2022-10-22T03:29:48;13.00;;;6.80;;
33553;SDS011;19885;42.208;24.952;2022-10-22T03:32:15;18.27;;;7.30;;
33553;SDS011;19885;42.208;24.952;2022-10-22T03:34:41;14.33;;;7.10;;
33553;SDS011;19885;42.208;24.952;2022-10-22T03:37:06;12.27;;;7.70;;
33553;SDS011;19885;42.208;24.952;2022-10-22T03:39:32;11.63;;;7.67;;
33553;SDS011;19885;42.208;24.952;2022-10-22T03:42:01;12.13;;;7.50;;
33553;SDS011;19885;42.208;24.952;2022-10-22T03:44:30;13.50;;;7.83;;
33553;SDS011;19885;42.208;24.952;2022-10-22T03:46:56;12.23;;;7.03;;
33553;SDS011;19885;42.208;24.952;2022-10-22T03:49:22;13.90;;;7.43;;
33553;SDS011;19885;42.208;24.952;2022-10-22T03:51:48;10.17;;;7.27;;
33553;SDS011;19885;42.208;24.952;2022-10-22T03:54:14;18.17;;;7.93;;
33553;SDS011;19885;42.208;24.952;2022-10-22T03:56:40;14.23;;;6.93;;
33553;SDS011;19885;42.208;24.952;2022-10-22T03:59:06;10.03;;;5.90;;
33553;SDS011;19885;42.208;24.952;2022-10-22T04:01:32;13.50;;;7.37;;
33553;SDS011;19885;42.208;24.952;2022-10-22T04:03:58;11.87;;;6.80;;
33553;SDS011;19885;42.208;24.952;2022-10-22T04:06:24;12.27;;;7.80;;
33553;SDS011;19885;42.208;24.952;2022-10-22T04:08:50;15.73;;;7.87;;
33553;SDS011;19885;42.208;24.952;2022-10-22T04:11:15;11.43;;;7.47;;
33553;SDS011;19885;42.208;24.952;2022-10-22T04:13:41;17.10;;;8.20;;
33553;SDS011;19885;42.208;24.952;2022-10-22T04:16:13;18.97;;;7.30;;
33553;SDS011;19885;42.208;24.952;2022-10-22T04:18:45;18.27;;;8.27;;
33553;SDS011;19885;42.208;24.952;2022-10-22T04:21:12;13.73;;;7.53;;
33553;SDS011;19885;42.208;24.952;2022-10-22T04:23:43;13.43;;;8.20;;
33553;SDS011;19885;42.208;24.952;2022-10-22T04:26:10;16.47;;;7.37;;
33553;SDS011;19885;42.208;24.952;2022-10-22T04:28:38;21.97;;;6.90;;
33553;SDS011;19885;42.208;24.952;2022-10-22T04:31:10;18.10;;;8.13;;
33553;SDS011;19885;42.208;24.952;2022-10-22T04:33:39;15.43;;;7.20;;
33553;SDS011;19885;42.208;24.952;2022-10-22T04:36:11;17.40;;;8.27;;
33553;SDS011;19885;42.208;24.952;2022-10-22T04:38:41;18.30;;;7.87;;
33553;SDS011;19885;42.208;24.952;2022-10-22T04:41:09;17.00;;;8.13;;
33553;SDS011;19885;42.208;24.952;2022-10-22T04:43:39;14.77;;;8.10;;
33553;SDS011;19885;42.208;24.952;2022-10-22T04:46:05;12.93;;;7.37;;
33553;SDS011;19885;42.208;24.952;2022-10-22T04:48:34;10.67;;;7.17;;
33553;SDS011;19885;42.208;24.952;2022-10-22T04:51:00;13.63;;;8.00;;
33553;SDS011;19885;42.208;24.952;2022-10-22T04:53:26;12.40;;;7.77;;
33553;SDS011;19885;42.208;24.952;2022-10-22T04:55:52;18.67;;;6.83;;
33553;SDS011;19885;42.208;24.952;2022-10-22T04:58:18;15.20;;;8.57;;
33553;SDS011;19885;42.208;24.952;2022-10-22T05:00:44;19.50;;;8.67;;
33553;SDS011;19885;42.208;24.952;2022-10-22T05:03:10;17.70;;;7.93;;
33553;SDS011;19885;42.208;24.952;2022-10-22T05:05:35;17.53;;;8.20;;
33553;SDS011;19885;42.208;24.952;2022-10-22T05:10:36;15.93;;;7.60;;
33553;SDS011;19885;42.208;24.952;2022-10-22T05:13:01;14.33;;;7.83;;
33553;SDS011;19885;42.208;24.952;2022-10-22T05:15:27;12.10;;;6.97;;
33553;SDS011;19885;42.208;24.952;2022-10-22T07:11:12;13.47;;;8.00;;
33553;SDS011;19885;42.208;24.952;2022-10-22T07:13:40;18.83;;;9.10;;
33553;SDS011;19885;42.208;24.952;2022-10-22T07:16:06;17.30;;;9.63;;
33553;SDS011;19885;42.208;24.952;2022-10-22T07:18:33;14.03;;;8.13;;
33553;SDS011;19885;42.208;24.952;2022-10-22T07:21:00;16.13;;;9.50;;
33553;SDS011;19885;42.208;24.952;2022-10-22T07:23:26;16.57;;;9.23;;
33553;SDS011;19885;42.208;24.952;2022-10-22T07:25:54;14.37;;;7.67;;
33553;SDS011;19885;42.208;24.952;2022-10-22T07:28:20;14.13;;;8.07;;
33553;SDS011;19885;42.208;24.952;2022-10-22T07:30:45;13.70;;;8.60;;
33553;SDS011;19885;42.208;24.952;2022-10-22T07:33:12;15.53;;;9.37;;
33553;SDS011;19885;42.208;24.952;2022-10-22T07:35:38;11.63;;;8.70;;
33553;SDS011;19885;42.208;24.952;2022-10-22T07:38:04;15.13;;;8.83;;
33553;SDS011;19885;42.208;24.952;2022-10-22T07:40:30;21.37;;;9.73;;
33553;SDS011;19885;42.208;24.952;2022-10-22T07:42:56;12.63;;;8.33;;
33553;SDS011;19885;42.208;24.952;2022-10-22T07:45:21;15.00;;;9.80;;
33553;SDS011;19885;42.208;24.952;2022-10-22T07:47:47;18.90;;;8.83;;
33553;SDS011;19885;42.208;24.952;2022-10-22T07:50:13;16.47;;;8.63;;
33553;SDS011;19885;42.208;24.952;2022-10-22T07:52:39;13.43;;;8.00;;
33553;SDS011;19885;42.208;24.952;2022-10-22T07:55:05;8.93;;;7.30;;
33553;SDS011;19885;42.208;24.952;2022-10-22T07:57:31;20.33;;;7.97;;
33553;SDS011;19885;42.208;24.952;2022-10-22T07:59:57;19.37;;;9.83;;
33553;SDS011;19885;42.208;24.952;2022-10-22T08:02:23;15.90;;;9.73;;
33553;SDS011;19885;42.208;24.952;2022-10-22T08:04:49;12.97;;;7.80;;
33553;SDS011;19885;42.208;24.952;2022-10-22T08:07:16;18.47;;;8.90;;
33553;SDS011;19885;42.208;24.952;2022-10-22T08:09:42;15.80;;;9.63;;
33553;SDS011;19885;42.208;24.952;2022-10-22T08:12:08;19.67;;;9.27;;
33553;SDS011;19885;42.208;24.952;2022-10-22T08:14:34;17.73;;;9.10;;
33553;SDS011;19885;42.208;24.952;2022-10-22T08:17:00;16.57;;;9.73;;
33553;SDS011;19885;42.208;24.952;2022-10-22T08:19:25;19.10;;;9.70;;
33553;SDS011;19885;42.208;24.952;2022-10-22T08:21:52;18.27;;;10.00;;
33553;SDS011;19885;42.208;24.952;2022-10-22T08:24:18;18.27;;;8.83;;
33553;SDS011;19885;42.208;24.952;2022-10-22T08:26:44;18.53;;;10.77;;
33553;SDS011;19885;42.208;24.952;2022-10-22T08:29:09;19.03;;;10.23;;
33553;SDS011;19885;42.208;24.952;2022-10-22T08:31:35;18.03;;;11.03;;
33553;SDS011;19885;42.208;24.952;2022-10-22T08:34:01;18.80;;;10.37;;
33553;SDS011;19885;42.208;24.952;2022-10-22T08:36:30;15.93;;;9.57;;
33553;SDS011;19885;42.208;24.952;2022-10-22T08:38:56;18.00;;;8.60;;
33553;SDS011;19885;42.208;24.952;2022-10-22T08:41:22;17.17;;;10.07;;
33553;SDS011;19885;42.208;24.952;2022-10-22T08:46:24;24.03;;;7.17;;
33553;SDS011;19885;42.208;24.952;2022-10-22T08:48:57;15.90;;;6.80;;
33553;SDS011;19885;42.208;24.952;2022-10-22T08:51:29;11.37;;;7.27;;
33553;SDS011;19885;42.208;24.952;2022-10-22T08:59:45;14.23;;;6.40;;
33553;SDS011;19885;42.208;24.952;2022-10-22T09:02:21;11.50;;;7.47;;
33553;SDS011;19885;42.208;24.952;2022-10-22T09:07:43;27.03;;;7.70;;
33553;SDS011;19885;42.208;24.952;2022-10-22T09:10:14;15.70;;;7.83;;
33553;SDS011;19885;42.208;24.952;2022-10-22T09:12:41;22.97;;;9.00;;
33553;SDS011;19885;42.208;24.952;2022-10-22T09:15:11;73.07;;;12.43;;
33553;SDS011;19885;42.208;24.952;2022-10-22T09:20:24;12.27;;;6.73;;
33553;SDS011;19885;42.208;24.952;2022-10-22T09:25:45;13.27;;;6.20;;
33553;SDS011;19885;42.208;24.952;2022-10-22T09:28:13;14.20;;;7.10;;
33553;SDS011;19885;42.208;24.952;2022-10-22T09:30:39;11.93;;;6.93;;
33553;SDS011;19885;42.208;24.952;2022-10-22T09:35:45;12.37;;;7.00;;
33553;SDS011;19885;42.208;24.952;2022-10-22T09:38:15;11.10;;;6.20;;
33553;SDS011;19885;42.208;24.952;2022-10-22T09:40:49;11.23;;;6.57;;
33553;SDS011;19885;42.208;24.952;2022-10-22T09:43:17;13.30;;;6.73;;
33553;SDS011;19885;42.208;24.952;2022-10-22T09:45:43;9.30;;;6.07;;
33553;SDS011;19885;42.208;24.952;2022-10-22T09:50:45;9.70;;;6.63;;
33553;SDS011;19885;42.208;24.952;2022-10-22T09:53:16;11.57;;;5.83;;
33553;SDS011;19885;42.208;24.952;2022-10-22T09:55:55;8.90;;;5.33;;
33553;SDS011;19885;42.208;24.952;2022-10-22T09:58:32;16.50;;;6.67;;
33553;SDS011;19885;42.208;24.952;2022-10-22T10:01:06;6.47;;;4.40;;
33553;SDS011;19885;42.208;24.952;2022-10-22T10:03:32;10.37;;;5.57;;
33553;SDS011;19885;42.208;24.952;2022-10-22T10:05:58;10.63;;;5.97;;
33553;SDS011;19885;42.208;24.952;2022-10-22T10:08:24;8.67;;;5.73;;
33553;SDS011;19885;42.208;24.952;2022-10-22T10:16:24;12.87;;;5.37;;
33553;SDS011;19885;42.208;24.952;2022-10-22T10:22:42;7.73;;;4.57;;
33553;SDS011;19885;42.208;24.952;2022-10-22T10:25:25;10.57;;;5.53;;
33553;SDS011;19885;42.208;24.952;2022-10-22T10:39:03;6.27;;;3.80;;
33553;SDS011;19885;42.208;24.952;2022-10-22T10:41:58;6.73;;;3.97;;
33553;SDS011;19885;42.208;24.952;2022-10-22T10:44:36;7.27;;;3.77;;
33553;SDS011;19885;42.208;24.952;2022-10-22T10:50:19;7.57;;;3.97;;
33553;SDS011;19885;42.208;24.952;2022-10-22T10:56:08;6.00;;;3.97;;
33553;SDS011;19885;42.208;24.952;2022-10-22T10:58:56;7.40;;;4.30;;
33553;SDS011;19885;42.208;24.952;2022-10-22T11:07:05;6.40;;;4.60;;
33553;SDS011;19885;42.208;24.952;2022-10-22T11:09:52;7.63;;;5.73;;
33553;SDS011;19885;42.208;24.952;2022-10-22T11:12:29;9.50;;;4.97;;
33553;SDS011;19885;42.208;24.952;2022-10-22T11:17:52;8.03;;;4.77;;
33553;SDS011;19885;42.208;24.952;2022-10-22T11:20:25;8.30;;;4.73;;
33553;SDS011;19885;42.208;24.952;2022-10-22T11:22:56;10.27;;;4.60;;
33553;SDS011;19885;42.208;24.952;2022-10-22T11:25:33;6.13;;;3.95;;
33553;SDS011;19885;42.208;24.952;2022-10-22T11:28:09;7.67;;;5.67;;
33553;SDS011;19885;42.208;24.952;2022-10-22T11:30:39;10.73;;;4.43;;
33553;SDS011;19885;42.208;24.952;2022-10-22T11:33:10;8.37;;;4.50;;
33553;SDS011;19885;42.208;24.952;2022-10-22T11:35:41;6.60;;;4.30;;
33553;SDS011;19885;42.208;24.952;2022-10-22T11:38:11;11.63;;;5.30;;
33553;SDS011;19885;42.208;24.952;2022-10-22T11:44:18;11.37;;;5.93;;
33553;SDS011;19885;42.208;24.952;2022-10-22T11:46:38;7.33;;;3.83;;
33553;SDS011;19885;42.208;24.952;2022-10-22T11:51:37;11.37;;;4.93;;
33553;SDS011;19885;42.208;24.952;2022-10-22T11:57:20;16.40;;;5.37;;
33553;SDS011;19885;42.208;24.952;2022-10-22T11:59:48;7.40;;;4.57;;
33553;SDS011;19885;42.208;24.952;2022-10-22T12:10:25;10.23;;;4.77;;
33553;SDS011;19885;42.208;24.952;2022-10-22T12:12:57;10.63;;;5.77;;
33553;SDS011;19885;42.208;24.952;2022-10-22T12:15:46;10.40;;;5.00;;
33553;SDS011;19885;42.208;24.952;2022-10-22T12:18:13;8.43;;;4.17;;
33553;SDS011;19885;42.208;24.952;2022-10-22T12:20:39;6.93;;;4.80;;
33553;SDS011;19885;42.208;24.952;2022-10-22T12:23:05;5.93;;;4.27;;
33553;SDS011;19885;42.208;24.952;2022-10-22T12:25:36;8.93;;;4.23;;
33553;SDS011;19885;42.208;24.952;2022-10-22T12:28:03;12.50;;;4.22;;
33553;SDS011;19885;42.208;24.952;2022-10-22T12:30:34;6.33;;;4.10;;
33553;SDS011;19885;42.208;24.952;2022-10-22T12:33:01;7.30;;;4.77;;
33553;SDS011;19885;42.208;24.952;2022-10-22T12:35:31;5.73;;;4.50;;
33553;SDS011;19885;42.208;24.952;2022-10-22T12:38:10;10.77;;;5.10;;
33553;SDS011;19885;42.208;24.952;2022-10-22T12:40:42;7.70;;;4.87;;
33553;SDS011;19885;42.208;24.952;2022-10-22T12:43:12;6.43;;;4.00;;
33553;SDS011;19885;42.208;24.952;2022-10-22T12:45:39;8.13;;;3.57;;
33553;SDS011;19885;42.208;24.952;2022-10-22T12:48:17;8.90;;;4.90;;
33553;SDS011;19885;42.208;24.952;2022-10-22T12:51:00;8.17;;;3.60;;
33553;SDS011;19885;42.208;24.952;2022-10-22T12:53:31;7.50;;;3.80;;
33553;SDS011;19885;42.208;24.952;2022-10-22T12:56:04;8.07;;;3.60;;
33553;SDS011;19885;42.208;24.952;2022-10-22T12:58:37;12.73;;;4.07;;
33553;SDS011;19885;42.208;24.952;2022-10-22T13:01:06;5.57;;;3.83;;
33553;SDS011;19885;42.208;24.952;2022-10-22T13:03:43;7.03;;;4.67;;
33553;SDS011;19885;42.208;24.952;2022-10-22T13:11:20;5.87;;;3.77;;
33553;SDS011;19885;42.208;24.952;2022-10-22T13:13:46;8.03;;;4.33;;
33553;SDS011;19885;42.208;24.952;2022-10-22T13:16:12;5.43;;;3.42;;
33553;SDS011;19885;42.208;24.952;2022-10-22T13:18:50;5.43;;;4.07;;
33553;SDS011;19885;42.208;24.952;2022-10-22T13:21:20;6.40;;;4.47;;
33553;SDS011;19885;42.208;24.952;2022-10-22T13:23:52;14.80;;;4.77;;
33553;SDS011;19885;42.208;24.952;2022-10-22T13:26:24;8.37;;;4.73;;
33553;SDS011;19885;42.208;24.952;2022-10-22T13:28:56;6.13;;;4.10;;
33553;SDS011;19885;42.208;24.952;2022-10-22T13:31:26;4.67;;;3.90;;
33553;SDS011;19885;42.208;24.952;2022-10-22T13:34:00;7.73;;;4.17;;
33553;SDS011;19885;42.208;24.952;2022-10-22T13:36:28;11.40;;;4.20;;
33553;SDS011;19885;42.208;24.952;2022-10-22T13:38:54;6.93;;;3.43;;
33553;SDS011;19885;42.208;24.952;2022-10-22T13:41:21;3.93;;;3.13;;
33553;SDS011;19885;42.208;24.952;2022-10-22T13:43:49;6.40;;;4.20;;
33553;SDS011;19885;42.208;24.952;2022-10-22T13:46:15;9.13;;;3.60;;
33553;SDS011;19885;42.208;24.952;2022-10-22T13:48:42;5.80;;;3.57;;
33553;SDS011;19885;42.208;24.952;2022-10-22T13:51:12;7.70;;;3.57;;
33553;SDS011;19885;42.208;24.952;2022-10-22T13:53:41;4.07;;;3.60;;
33553;SDS011;19885;42.208;24.952;2022-10-22T13:56:15;7.70;;;4.10;;
33553;SDS011;19885;42.208;24.952;2022-10-22T13:58:43;8.23;;;3.57;;
33553;SDS011;19885;42.208;24.952;2022-10-22T14:01:28;5.33;;;3.57;;
33553;SDS011;19885;42.208;24.952;2022-10-22T14:03:55;5.67;;;3.50;;
33553;SDS011;19885;42.208;24.952;2022-10-22T14:06:23;4.70;;;3.07;;
33553;SDS011;19885;42.208;24.952;2022-10-22T14:08:57;8.53;;;3.93;;
33553;SDS011;19885;42.208;24.952;2022-10-22T14:11:24;5.33;;;3.20;;
33553;SDS011;19885;42.208;24.952;2022-10-22T14:13:57;6.47;;;3.53;;
33553;SDS011;19885;42.208;24.952;2022-10-22T14:16:23;6.23;;;3.60;;
33553;SDS011;19885;42.208;24.952;2022-10-22T14:18:50;14.63;;;4.40;;
33553;SDS011;19885;42.208;24.952;2022-10-22T14:21:16;6.30;;;4.00;;
33553;SDS011;19885;42.208;24.952;2022-10-22T14:23:43;17.73;;;8.80;;
33553;SDS011;19885;42.208;24.952;2022-10-22T14:26:24;11.13;;;5.93;;
33553;SDS011;19885;42.208;24.952;2022-10-22T14:28:56;17.77;;;8.80;;
33553;SDS011;19885;42.208;24.952;2022-10-22T14:31:22;16.80;;;9.87;;
33553;SDS011;19885;42.208;24.952;2022-10-22T14:33:48;27.50;;;14.53;;
33553;SDS011;19885;42.208;24.952;2022-10-22T14:36:14;23.57;;;11.00;;
33553;SDS011;19885;42.208;24.952;2022-10-22T14:38:42;8.67;;;4.73;;
33553;SDS011;19885;42.208;24.952;2022-10-22T14:41:18;5.93;;;4.27;;
33553;SDS011;19885;42.208;24.952;2022-10-22T14:43:46;8.33;;;3.87;;
33553;SDS011;19885;42.208;24.952;2022-10-22T14:46:14;5.03;;;3.43;;
33553;SDS011;19885;42.208;24.952;2022-10-22T14:48:41;7.17;;;4.73;;
33553;SDS011;19885;42.208;24.952;2022-10-22T14:51:08;5.33;;;3.50;;
33553;SDS011;19885;42.208;24.952;2022-10-22T14:53:37;12.97;;;4.50;;
33553;SDS011;19885;42.208;24.952;2022-10-22T14:56:02;19.30;;;5.67;;
33553;SDS011;19885;42.208;24.952;2022-10-22T14:58:28;27.43;;;9.53;;
33553;SDS011;19885;42.208;24.952;2022-10-22T15:00:56;48.70;;;23.33;;
33553;SDS011;19885;42.208;24.952;2022-10-22T15:03:21;60.37;;;28.00;;
33553;SDS011;19885;42.208;24.952;2022-10-22T15:05:49;79.83;;;33.43;;
33553;SDS011;19885;42.208;24.952;2022-10-22T15:08:18;88.93;;;37.17;;
33553;SDS011;19885;42.208;24.952;2022-10-22T15:10:45;104.20;;;46.27;;
33553;SDS011;19885;42.208;24.952;2022-10-22T15:13:11;97.73;;;44.53;;
33553;SDS011;19885;42.208;24.952;2022-10-22T15:15:39;92.37;;;40.23;;
33553;SDS011;19885;42.208;24.952;2022-10-22T15:18:05;64.60;;;27.83;;
33553;SDS011;19885;42.208;24.952;2022-10-22T15:20:31;87.10;;;33.23;;
33553;SDS011;19885;42.208;24.952;2022-10-22T15:22:59;70.47;;;30.40;;
33553;SDS011;19885;42.208;24.952;2022-10-22T15:25:25;32.37;;;14.10;;
33553;SDS011;19885;42.208;24.952;2022-10-22T15:27:51;31.27;;;13.27;;
33553;SDS011;19885;42.208;24.952;2022-10-22T15:30:16;48.97;;;17.53;;
33553;SDS011;19885;42.208;24.952;2022-10-22T15:32:42;50.77;;;18.17;;
33553;SDS011;19885;42.208;24.952;2022-10-22T15:35:08;35.57;;;15.90;;
33553;SDS011;19885;42.208;24.952;2022-10-22T15:37:33;40.80;;;18.23;;
33553;SDS011;19885;42.208;24.952;2022-10-22T15:40:01;33.90;;;17.93;;
33553;SDS011;19885;42.208;24.952;2022-10-22T15:42:28;19.33;;;11.17;;
33553;SDS011;19885;42.208;24.952;2022-10-22T15:44:57;34.17;;;16.40;;
33553;SDS011;19885;42.208;24.952;2022-10-22T15:47:23;41.63;;;15.50;;
33553;SDS011;19885;42.208;24.952;2022-10-22T15:49:52;31.97;;;11.67;;
33553;SDS011;19885;42.208;24.952;2022-10-22T15:52:18;19.53;;;11.07;;
33553;SDS011;19885;42.208;24.952;2022-10-22T15:54:45;24.97;;;12.20;;
33553;SDS011;19885;42.208;24.952;2022-10-22T15:57:14;27.27;;;12.97;;
33553;SDS011;19885;42.208;24.952;2022-10-22T15:59:39;55.67;;;18.27;;
33553;SDS011;19885;42.208;24.952;2022-10-22T16:02:05;42.73;;;18.33;;
33553;SDS011;19885;42.208;24.952;2022-10-22T16:04:31;33.43;;;13.40;;
33553;SDS011;19885;42.208;24.952;2022-10-22T16:06:57;31.87;;;13.40;;
33553;SDS011;19885;42.208;24.952;2022-10-22T16:09:24;40.53;;;20.67;;
33553;SDS011;19885;42.208;24.952;2022-10-22T16:11:51;27.23;;;15.50;;
33553;SDS011;19885;42.208;24.952;2022-10-22T16:14:18;28.03;;;11.60;;
33553;SDS011;19885;42.208;24.952;2022-10-22T16:16:46;20.87;;;12.93;;
33553;SDS011;19885;42.208;24.952;2022-10-22T16:19:15;20.90;;;10.77;;
33553;SDS011;19885;42.208;24.952;2022-10-22T16:21:41;22.40;;;12.47;;
33553;SDS011;19885;42.208;24.952;2022-10-22T16:24:08;16.47;;;9.30;;
33553;SDS011;19885;42.208;24.952;2022-10-22T16:26:35;21.43;;;10.90;;
33553;SDS011;19885;42.208;24.952;2022-10-22T16:29:01;26.23;;;12.67;;
33553;SDS011;19885;42.208;24.952;2022-10-22T16:31:28;23.07;;;11.70;;
33553;SDS011;19885;42.208;24.952;2022-10-22T16:33:54;17.70;;;9.93;;
33553;SDS011;19885;42.208;24.952;2022-10-22T16:36:19;15.97;;;9.67;;
33553;SDS011;19885;42.208;24.952;2022-10-22T16:38:46;26.97;;;9.73;;
33553;SDS011;19885;42.208;24.952;2022-10-22T16:41:18;27.50;;;10.60;;
33553;SDS011;19885;42.208;24.952;2022-10-22T16:43:46;18.17;;;9.50;;
33553;SDS011;19885;42.208;24.952;2022-10-22T16:46:14;17.63;;;9.43;;
33553;SDS011;19885;42.208;24.952;2022-10-22T16:48:48;29.67;;;11.93;;
33553;SDS011;19885;42.208;24.952;2022-10-22T16:51:16;34.97;;;13.27;;
33553;SDS011;19885;42.208;24.952;2022-10-22T16:53:44;33.17;;;14.23;;
33553;SDS011;19885;42.208;24.952;2022-10-22T16:56:10;48.10;;;14.73;;
33553;SDS011;19885;42.208;24.952;2022-10-22T16:58:37;39.87;;;15.13;;
33553;SDS011;19885;42.208;24.952;2022-10-22T17:01:08;45.30;;;15.40;;
33553;SDS011;19885;42.208;24.952;2022-10-22T17:03:34;43.37;;;14.10;;
33553;SDS011;19885;42.208;24.952;2022-10-22T17:06:00;43.33;;;16.47;;
33553;SDS011;19885;42.208;24.952;2022-10-22T17:08:27;61.80;;;23.23;;
33553;SDS011;19885;42.208;24.952;2022-10-22T17:10:53;60.57;;;24.93;;
33553;SDS011;19885;42.208;24.952;2022-10-22T17:13:18;72.20;;;26.73;;
33553;SDS011;19885;42.208;24.952;2022-10-22T17:15:44;92.00;;;30.37;;
33553;SDS011;19885;42.208;24.952;2022-10-22T17:18:09;69.03;;;28.17;;
33553;SDS011;19885;42.208;24.952;2022-10-22T17:20:39;57.80;;;19.93;;
33553;SDS011;19885;42.208;24.952;2022-10-22T17:23:06;53.53;;;19.60;;
33553;SDS011;19885;42.208;24.952;2022-10-22T17:25:34;51.03;;;17.70;;
33553;SDS011;19885;42.208;24.952;2022-10-22T17:28:08;67.53;;;27.40;;
33553;SDS011;19885;42.208;24.952;2022-10-22T17:30:34;59.70;;;22.90;;
33553;SDS011;19885;42.208;24.952;2022-10-22T17:33:05;60.37;;;22.47;;
33553;SDS011;19885;42.208;24.952;2022-10-22T17:35:32;63.80;;;24.40;;
33553;SDS011;19885;42.208;24.952;2022-10-22T17:37:58;63.83;;;24.03;;
33553;SDS011;19885;42.208;24.952;2022-10-22T17:40:24;50.20;;;20.30;;
33553;SDS011;19885;42.208;24.952;2022-10-22T17:42:51;46.37;;;20.03;;
33553;SDS011;19885;42.208;24.952;2022-10-22T17:45:17;53.30;;;20.20;;
33553;SDS011;19885;42.208;24.952;2022-10-22T17:47:42;54.43;;;20.00;;
33553;SDS011;19885;42.208;24.952;2022-10-22T17:50:08;24.07;;;9.93;;
33553;SDS011;19885;42.208;24.952;2022-10-22T17:52:34;43.90;;;14.93;;
33553;SDS011;19885;42.208;24.952;2022-10-22T17:54:59;33.70;;;15.83;;
33553;SDS011;19885;42.208;24.952;2022-10-22T17:57:25;59.70;;;16.33;;
33553;SDS011;19885;42.208;24.952;2022-10-22T17:59:51;47.83;;;15.20;;
33553;SDS011;19885;42.208;24.952;2022-10-22T18:02:17;38.07;;;14.40;;
33553;SDS011;19885;42.208;24.952;2022-10-22T18:04:42;42.37;;;14.77;;
33553;SDS011;19885;42.208;24.952;2022-10-22T18:07:08;33.30;;;13.90;;
33553;SDS011;19885;42.208;24.952;2022-10-22T18:09:34;39.90;;;13.30;;
33553;SDS011;19885;42.208;24.952;2022-10-22T18:12:00;51.97;;;13.80;;
33553;SDS011;19885;42.208;24.952;2022-10-22T18:14:25;34.13;;;13.60;;
33553;SDS011;19885;42.208;24.952;2022-10-22T18:16:51;40.83;;;13.40;;